createdAt,value
2019-03-03T00:01:24.701Z,87.59
2019-03-03T00:03:54.521Z,87.95
2019-03-03T00:06:24.116Z,88.04
2019-03-03T00:08:55.114Z,88.09
2019-03-03T00:11:24.629Z,87.91
2019-03-03T00:13:54.221Z,88.09
2019-03-03T00:16:25.419Z,88.02
2019-03-03T00:18:54.856Z,88.20
2019-03-03T00:21:25.649Z,88.05
2019-03-03T00:23:55.174Z,88.07
2019-03-03T00:26:25.063Z,87.95
2019-03-03T00:28:54.500Z,87.58
2019-03-03T00:31:35.977Z,87.28
2019-03-03T00:34:05.624Z,86.91
2019-03-03T00:36:55.461Z,86.64
2019-03-03T00:39:42.009Z,86.14
2019-03-03T00:42:25.142Z,85.35
2019-03-03T00:45:06.925Z,85.00
2019-03-03T00:47:54.262Z,84.28
2019-03-03T00:50:27.864Z,83.63
2019-03-03T00:52:58.910Z,83.29
2019-03-03T00:55:30.058Z,82.01
2019-03-03T00:58:15.108Z,82.10
2019-03-03T01:00:46.325Z,81.43
2019-03-03T01:03:17.530Z,81.20
2019-03-03T01:06:03.834Z,80.33
2019-03-03T01:08:40.924Z,78.73
2019-03-03T01:11:16.330Z,78.10
2019-03-03T01:13:55.795Z,77.33
2019-03-03T01:16:32.036Z,77.08
2019-03-03T01:19:07.131Z,76.69
2019-03-03T01:21:56.634Z,75.91
2019-03-03T01:24:45.837Z,75.53
2019-03-03T01:27:15.798Z,76.08
2019-03-03T01:29:45.244Z,74.89
2019-03-03T01:32:14.668Z,75.00
2019-03-03T01:34:47.334Z,74.76
2019-03-03T01:37:17.001Z,74.70
2019-03-03T01:39:46.527Z,74.88
2019-03-03T01:42:16.027Z,74.19
2019-03-03T01:44:45.529Z,74.25
2019-03-03T01:47:14.945Z,74.22
2019-03-03T01:49:44.376Z,74.06
2019-03-03T01:52:14.669Z,73.80
2019-03-03T01:54:44.178Z,73.90
2019-03-03T01:57:13.595Z,73.21
2019-03-03T01:59:43.111Z,73.26
2019-03-03T02:02:12.531Z,74.04
2019-03-03T02:04:41.966Z,73.61
2019-03-03T02:07:11.473Z,73.45
2019-03-03T02:09:40.951Z,73.93
2019-03-03T02:12:10.459Z,73.68
2019-03-03T02:14:40.012Z,74.04
2019-03-03T02:17:09.994Z,73.98
2019-03-03T02:19:39.447Z,73.99
2019-03-03T02:22:08.959Z,73.93
2019-03-03T02:24:38.379Z,73.80
2019-03-03T02:27:07.809Z,74.05
2019-03-03T02:29:37.369Z,73.88
2019-03-03T02:32:06.993Z,73.58
2019-03-03T02:34:36.405Z,73.78
2019-03-03T02:37:05.921Z,73.55
2019-03-03T02:39:35.412Z,73.77
2019-03-03T02:42:04.907Z,73.89
2019-03-03T02:44:34.492Z,73.93
2019-03-03T02:47:03.979Z,74.08
2019-03-03T02:49:33.419Z,74.06
2019-03-03T02:52:02.903Z,74.28
2019-03-03T02:54:32.321Z,74.47
2019-03-03T02:57:01.772Z,74.54
2019-03-03T02:59:31.214Z,74.47
2019-03-03T03:02:01.513Z,74.71
2019-03-03T03:04:31.032Z,74.68
2019-03-03T03:07:02.150Z,74.91
2019-03-03T03:09:33.183Z,75.14
2019-03-03T03:12:12.721Z,74.75
2019-03-03T03:14:52.943Z,75.02
2019-03-03T03:17:27.302Z,75.10
2019-03-03T03:19:58.365Z,74.88
2019-03-03T03:22:38.705Z,75.27
2019-03-03T03:25:16.093Z,75.34
2019-03-03T03:27:47.253Z,75.19
2019-03-03T03:30:27.417Z,75.28
2019-03-03T03:33:02.040Z,74.91
2019-03-03T03:35:41.328Z,74.46
2019-03-03T03:38:14.925Z,74.68
2019-03-03T03:40:45.989Z,74.46
2019-03-03T03:43:17.072Z,74.47
2019-03-03T03:45:48.145Z,74.17
2019-03-03T03:48:21.992Z,74.28
2019-03-03T03:50:58.873Z,74.23
2019-03-03T03:53:32.905Z,74.05
2019-03-03T03:56:04.124Z,73.83
2019-03-03T03:58:35.312Z,73.73
2019-03-03T04:01:13.388Z,73.80
2019-03-03T04:03:44.781Z,73.72
2019-03-03T04:06:18.956Z,73.45
2019-03-03T04:08:50.545Z,73.44
2019-03-03T04:11:24.571Z,73.47
2019-03-03T04:13:58.594Z,73.18
2019-03-03T04:16:29.644Z,73.29
2019-03-03T04:19:00.729Z,73.24
2019-03-03T04:21:34.233Z,73.21
2019-03-03T04:24:14.244Z,72.82
2019-03-03T04:26:45.307Z,72.69
2019-03-03T04:29:22.311Z,72.64
2019-03-03T04:31:53.370Z,72.44
2019-03-03T04:34:33.661Z,72.58
2019-03-03T04:37:19.720Z,72.32
2019-03-03T04:39:50.787Z,72.38
2019-03-03T04:42:33.899Z,71.92
2019-03-03T04:45:05.820Z,71.63
2019-03-03T04:47:36.880Z,71.76
2019-03-03T04:50:27.719Z,71.63
2019-03-03T04:53:01.824Z,71.25
2019-03-03T04:55:39.092Z,71.44
2019-03-03T04:58:16.345Z,71.21
2019-03-03T05:00:53.190Z,71.14
2019-03-03T05:03:30.477Z,71.22
2019-03-03T05:06:01.538Z,71.21
2019-03-03T05:08:32.627Z,70.94
2019-03-03T05:11:03.699Z,70.77
2019-03-03T05:13:34.756Z,70.06
2019-03-03T05:16:21.245Z,70.17
2019-03-03T05:18:58.110Z,69.88
2019-03-03T05:21:28.742Z,69.71
2019-03-03T05:23:59.212Z,69.40
2019-03-03T05:26:28.719Z,69.79
2019-03-03T05:28:58.143Z,69.49
2019-03-03T05:31:29.381Z,69.50
2019-03-03T05:33:58.879Z,69.04
2019-03-03T05:36:28.322Z,69.02
2019-03-03T05:38:57.746Z,68.81
2019-03-03T05:41:27.178Z,68.60
2019-03-03T05:43:56.676Z,68.24
2019-03-03T05:46:26.099Z,68.21
2019-03-03T05:48:55.529Z,68.37
2019-03-03T05:51:24.948Z,68.21
2019-03-03T05:53:54.651Z,68.15
2019-03-03T05:56:24.063Z,67.95
2019-03-03T05:58:53.801Z,67.93
2019-03-03T06:01:23.222Z,67.52
2019-03-03T06:03:52.715Z,67.58
2019-03-03T06:06:22.119Z,67.33
2019-03-03T06:08:51.614Z,67.12
2019-03-03T06:11:21.056Z,67.53
2019-03-03T06:13:50.473Z,67.53
2019-03-03T06:16:19.916Z,67.24
2019-03-03T06:18:49.355Z,67.15
2019-03-03T06:21:21.503Z,67.43
2019-03-03T06:23:51.015Z,67.52
2019-03-03T06:26:20.432Z,67.24
2019-03-03T06:28:49.897Z,67.44
2019-03-03T06:31:19.301Z,67.34
2019-03-03T06:33:48.819Z,67.27
2019-03-03T06:36:18.246Z,67.42
2019-03-03T06:38:47.675Z,67.50
2019-03-03T06:41:17.136Z,67.23
2019-03-03T06:43:46.617Z,67.68
2019-03-03T06:46:16.063Z,67.45
2019-03-03T06:48:45.484Z,67.59
2019-03-03T06:51:14.932Z,67.63
2019-03-03T06:53:44.345Z,68.42
2019-03-03T06:56:13.790Z,69.44
2019-03-03T06:58:43.204Z,69.76
2019-03-03T07:01:12.634Z,69.56
2019-03-03T07:03:42.068Z,69.36
2019-03-03T07:06:11.499Z,69.86
2019-03-03T07:08:41.040Z,69.63
2019-03-03T07:11:10.453Z,69.59
2019-03-03T07:13:39.889Z,71.08
2019-03-03T07:16:09.315Z,72.66
2019-03-03T07:18:38.762Z,73.94
2019-03-03T07:21:08.264Z,74.13
2019-03-03T07:23:37.722Z,74.75
2019-03-03T07:26:07.141Z,74.70
2019-03-03T07:28:36.652Z,75.26
2019-03-03T07:31:06.141Z,75.94
2019-03-03T07:33:35.565Z,76.83
2019-03-03T07:36:05.048Z,77.84
2019-03-03T07:38:34.485Z,79.11
2019-03-03T07:41:03.984Z,79.59
2019-03-03T07:43:34.565Z,80.80
2019-03-03T07:46:04.153Z,81.48
2019-03-03T07:48:33.592Z,81.50
2019-03-03T07:51:03.021Z,82.57
2019-03-03T07:53:33.506Z,83.12
2019-03-03T07:56:03.071Z,83.80
2019-03-03T07:58:32.591Z,83.78
2019-03-03T08:01:02.016Z,83.96
2019-03-03T08:03:31.480Z,84.28
2019-03-03T08:06:00.977Z,84.08
2019-03-03T08:08:33.545Z,84.59
2019-03-03T08:11:02.981Z,84.68
2019-03-03T08:13:32.427Z,84.57
2019-03-03T08:16:01.859Z,84.66
2019-03-03T08:18:31.273Z,84.46
2019-03-03T08:21:00.815Z,84.49
2019-03-03T08:23:30.296Z,84.17
2019-03-03T08:25:59.793Z,84.09
2019-03-03T08:28:29.204Z,83.70
2019-03-03T08:30:58.705Z,83.29
2019-03-03T08:33:28.118Z,83.44
2019-03-03T08:35:57.555Z,83.39
2019-03-03T08:38:27.027Z,83.38
2019-03-03T08:40:56.463Z,82.71
2019-03-03T08:43:36.235Z,83.12
2019-03-03T08:46:10.301Z,82.46
2019-03-03T08:48:47.311Z,82.07
2019-03-03T08:51:20.788Z,81.49
2019-03-03T08:54:03.654Z,80.65
2019-03-03T08:56:35.876Z,80.61
2019-03-03T08:59:06.943Z,80.65
2019-03-03T09:01:57.645Z,80.61
2019-03-03T09:04:44.610Z,80.56
2019-03-03T09:07:21.655Z,80.10
2019-03-03T09:09:58.748Z,79.90
2019-03-03T09:12:32.598Z,80.03
2019-03-03T09:15:15.477Z,79.82
2019-03-03T09:17:48.978Z,80.20
2019-03-03T09:20:20.047Z,81.25
2019-03-03T09:22:51.205Z,81.69
2019-03-03T09:25:28.587Z,81.88
2019-03-03T09:28:15.628Z,81.85
2019-03-03T09:30:52.586Z,82.40
2019-03-03T09:33:32.499Z,82.65
2019-03-03T09:36:03.563Z,82.46
2019-03-03T09:38:46.991Z,82.66
2019-03-03T09:41:33.084Z,82.84
2019-03-03T09:44:23.636Z,82.94
2019-03-03T09:47:00.642Z,82.93
2019-03-03T09:49:31.702Z,83.16
2019-03-03T09:52:11.753Z,83.30
2019-03-03T09:54:45.799Z,83.42
2019-03-03T09:57:33.319Z,83.66
2019-03-03T10:00:05.063Z,83.89
2019-03-03T10:02:42.175Z,83.62
2019-03-03T10:05:14.992Z,83.81
2019-03-03T10:07:55.410Z,83.93
2019-03-03T10:10:32.277Z,84.28
2019-03-03T10:13:18.747Z,84.82
2019-03-03T10:15:49.814Z,85.24
2019-03-03T10:18:23.746Z,85.09
2019-03-03T10:21:09.975Z,85.10
2019-03-03T10:23:56.533Z,84.99
2019-03-03T10:26:27.787Z,85.25
2019-03-03T10:29:01.864Z,85.15
2019-03-03T10:31:43.134Z,85.15
2019-03-03T10:34:14.240Z,85.47
2019-03-03T10:37:01.797Z,85.72
2019-03-03T10:39:34.038Z,85.67
2019-03-03T10:42:23.451Z,85.98
2019-03-03T10:45:03.530Z,85.68
2019-03-03T10:47:37.876Z,85.40
2019-03-03T10:50:13.520Z,85.39
2019-03-03T10:52:44.727Z,86.06
2019-03-03T10:55:16.034Z,85.98
2019-03-03T10:57:50.224Z,85.77
2019-03-03T11:00:38.919Z,85.92
2019-03-03T11:03:26.229Z,85.50
2019-03-03T11:06:15.812Z,85.67
2019-03-03T11:08:51.091Z,85.85
2019-03-03T11:11:24.955Z,85.71
2019-03-03T11:14:15.393Z,85.64
2019-03-03T11:16:49.566Z,85.22
2019-03-03T11:19:32.545Z,85.18
2019-03-03T11:22:15.628Z,85.10
2019-03-03T11:24:46.923Z,85.00
2019-03-03T11:27:20.625Z,85.03
2019-03-03T11:29:54.833Z,85.04
2019-03-03T11:32:42.711Z,85.35
2019-03-03T11:35:20.058Z,86.20
2019-03-03T11:37:51.324Z,85.60
2019-03-03T11:40:25.241Z,86.00
2019-03-03T11:43:05.310Z,86.54
2019-03-03T11:45:48.840Z,86.06
2019-03-03T11:48:36.542Z,86.99
2019-03-03T11:51:13.823Z,87.34
2019-03-03T11:53:48.744Z,87.74
2019-03-03T11:56:35.855Z,87.64
2019-03-03T11:59:07.277Z,87.43
2019-03-03T12:01:45.809Z,87.78
2019-03-03T12:04:35.248Z,87.90
2019-03-03T12:07:22.676Z,88.27
2019-03-03T12:10:02.556Z,88.33
2019-03-03T12:12:33.710Z,88.38
2019-03-03T12:15:06.592Z,88.68
2019-03-03T12:17:43.950Z,88.82
2019-03-03T12:20:33.399Z,89.11
2019-03-03T12:23:21.289Z,89.05
2019-03-03T12:25:55.343Z,88.67
2019-03-03T12:28:42.975Z,88.64
2019-03-03T12:34:22.203Z,88.57
2019-03-03T12:37:09.390Z,88.58
2019-03-03T12:39:40.477Z,88.02
2019-03-03T12:42:23.540Z,87.85
2019-03-03T12:44:57.315Z,87.99
2019-03-03T12:47:28.453Z,88.29
2019-03-03T12:50:05.591Z,87.90
2019-03-03T12:52:36.725Z,87.79
2019-03-03T12:55:27.814Z,87.90
2019-03-03T12:58:17.193Z,87.78
2019-03-03T13:00:53.811Z,87.99
2019-03-03T13:03:41.161Z,88.08
2019-03-03T13:06:12.231Z,87.72
2019-03-03T13:08:59.647Z,87.48
2019-03-03T13:11:44.353Z,87.57
2019-03-03T13:14:18.620Z,87.76
2019-03-03T13:16:52.752Z,88.11
2019-03-03T13:19:39.748Z,88.07
2019-03-03T13:22:10.948Z,87.77
2019-03-03T13:24:56.782Z,88.10
2019-03-03T13:27:27.839Z,87.67
2019-03-03T13:29:58.993Z,87.38
2019-03-03T13:32:34.689Z,87.32
2019-03-03T13:35:13.673Z,87.35
2019-03-03T13:38:01.037Z,86.87
2019-03-03T13:40:41.278Z,86.60
2019-03-03T13:43:10.697Z,86.45
2019-03-03T13:45:40.216Z,86.45
2019-03-03T13:48:11.297Z,86.57
2019-03-03T13:50:40.819Z,86.52
2019-03-03T13:53:11.342Z,86.39
2019-03-03T13:55:43.878Z,86.05
2019-03-03T13:58:13.376Z,86.01
2019-03-03T14:00:44.251Z,85.49
2019-03-03T14:03:14.104Z,86.06
2019-03-03T14:05:45.720Z,85.56
2019-03-03T14:08:15.406Z,85.96
2019-03-03T14:10:44.996Z,86.16
2019-03-03T14:13:17.254Z,86.27
2019-03-03T14:15:46.775Z,86.61
2019-03-03T14:18:16.272Z,86.82
2019-03-03T14:20:45.756Z,86.86
2019-03-03T14:23:15.257Z,86.86
2019-03-03T14:25:44.764Z,86.77
2019-03-03T14:28:14.357Z,86.92
2019-03-03T14:30:43.867Z,87.00
2019-03-03T14:33:13.400Z,87.09
2019-03-03T14:35:43.259Z,86.95
2019-03-03T14:38:12.721Z,87.21
2019-03-03T14:40:42.213Z,86.68
2019-03-03T14:43:11.730Z,86.00
2019-03-03T14:45:43.081Z,86.39
2019-03-03T14:48:12.575Z,86.58
2019-03-03T14:50:42.085Z,86.45
2019-03-03T14:53:11.493Z,86.26
2019-03-03T14:55:40.947Z,86.35
2019-03-03T14:58:13.407Z,85.70
2019-03-03T15:00:46.087Z,85.26
2019-03-03T15:03:15.565Z,85.73
2019-03-03T15:05:46.311Z,85.53
2019-03-03T15:08:15.899Z,85.51
2019-03-03T15:10:47.495Z,85.13
2019-03-03T15:13:17.087Z,85.06
2019-03-03T15:15:49.342Z,84.68
2019-03-03T15:18:18.894Z,84.59
2019-03-03T15:20:48.322Z,84.98
2019-03-03T15:23:19.496Z,85.02
2019-03-03T15:25:49.263Z,85.07
2019-03-03T15:28:18.790Z,85.16
2019-03-03T15:30:48.372Z,85.56
2019-03-03T15:33:17.804Z,85.31
2019-03-03T15:35:47.232Z,85.08
2019-03-03T15:38:18.014Z,85.39
2019-03-03T15:40:47.559Z,85.34
2019-03-03T15:43:17.140Z,85.53
2019-03-03T15:45:46.574Z,85.67
2019-03-03T15:48:16.068Z,85.16
2019-03-03T15:50:47.369Z,85.04
2019-03-03T15:53:17.873Z,85.57
2019-03-03T15:55:47.353Z,85.54
2019-03-03T15:58:16.785Z,85.26
2019-03-03T16:00:46.264Z,85.60
2019-03-03T16:03:15.842Z,85.97
2019-03-03T16:05:46.367Z,85.99
2019-03-03T16:08:15.959Z,85.87
2019-03-03T16:10:45.800Z,86.21
2019-03-03T16:13:15.312Z,86.25
2019-03-03T16:15:44.799Z,86.46
2019-03-03T16:18:14.482Z,86.76
2019-03-03T16:20:44.859Z,86.54
2019-03-03T16:23:14.499Z,86.65
2019-03-03T16:25:44.079Z,86.60
2019-03-03T16:28:13.659Z,86.72
2019-03-03T16:30:43.086Z,86.55
2019-03-03T16:33:20.274Z,86.90
2019-03-03T16:35:43.643Z,86.89
2019-03-03T16:38:14.613Z,86.75
2019-03-03T16:40:46.087Z,86.75
2019-03-03T16:43:18.046Z,86.79
2019-03-03T16:45:51.402Z,86.19
2019-03-03T16:48:20.832Z,86.20
2019-03-03T16:50:50.363Z,85.80
2019-03-03T16:53:19.862Z,85.57
2019-03-03T16:55:49.583Z,85.66
2019-03-03T16:58:20.522Z,85.50
2019-03-03T17:00:53.496Z,86.08
2019-03-03T17:03:23.066Z,85.73
2019-03-03T17:05:52.506Z,85.46
2019-03-03T17:08:22.012Z,85.33
2019-03-03T17:10:51.537Z,85.70
2019-03-03T17:13:20.953Z,85.93
2019-03-03T17:15:50.727Z,85.93
2019-03-03T17:18:20.151Z,86.24
2019-03-03T17:20:49.586Z,85.75
2019-03-03T17:23:19.078Z,85.92
2019-03-03T17:25:48.512Z,85.86
2019-03-03T17:28:17.957Z,85.75
2019-03-03T17:30:49.159Z,85.62
2019-03-03T17:33:20.142Z,85.17
2019-03-03T17:35:49.548Z,85.27
2019-03-03T17:38:19.146Z,85.08
2019-03-03T17:40:48.569Z,84.95
2019-03-03T17:43:19.493Z,84.92
2019-03-03T17:45:48.912Z,84.48
2019-03-03T17:48:18.314Z,84.18
2019-03-03T17:50:47.829Z,84.22
2019-03-03T17:53:17.323Z,83.88
2019-03-03T17:55:48.412Z,83.72
2019-03-03T17:58:17.913Z,83.92
2019-03-03T18:00:48.287Z,83.58
2019-03-03T18:03:17.847Z,83.36
2019-03-03T18:05:47.283Z,83.15
2019-03-03T18:08:16.773Z,83.34
2019-03-03T18:10:47.294Z,83.20
2019-03-03T18:13:16.703Z,82.89
2019-03-03T18:15:46.235Z,83.02
2019-03-03T18:18:17.845Z,83.20
2019-03-03T18:20:47.288Z,83.00
2019-03-03T18:23:16.749Z,82.75
2019-03-03T18:25:48.932Z,82.80
2019-03-03T18:28:20.011Z,82.47
2019-03-03T18:30:50.757Z,82.18
2019-03-03T18:33:20.380Z,82.36
2019-03-03T18:35:49.987Z,82.64
2019-03-03T18:38:20.951Z,82.22
2019-03-03T18:40:50.367Z,82.41
2019-03-03T18:43:20.761Z,82.01
2019-03-03T18:45:50.283Z,81.64
2019-03-03T18:48:19.695Z,81.36
2019-03-03T18:50:49.228Z,81.57
2019-03-03T18:53:20.145Z,81.17
2019-03-03T18:55:49.659Z,81.07
2019-03-03T18:58:19.166Z,80.69
2019-03-03T19:00:48.734Z,80.96
2019-03-03T19:03:18.324Z,81.02
2019-03-03T19:05:55.361Z,80.78
2019-03-03T19:08:19.192Z,80.80
2019-03-03T19:10:48.772Z,80.80
2019-03-03T19:13:18.304Z,80.80
2019-03-03T19:15:47.712Z,80.55
2019-03-03T19:18:17.310Z,80.33
2019-03-03T19:20:46.768Z,79.63
2019-03-03T19:23:17.781Z,79.36
2019-03-03T19:25:47.327Z,79.08
2019-03-03T19:28:16.816Z,78.15
2019-03-03T19:30:46.412Z,78.15
2019-03-03T19:33:24.703Z,78.36
2019-03-03T19:35:54.212Z,77.66
2019-03-03T19:38:23.820Z,77.66
2019-03-03T19:40:54.141Z,77.46
2019-03-03T19:43:23.890Z,76.63
2019-03-03T19:46:02.312Z,76.63
2019-03-03T19:48:31.900Z,76.55
2019-03-03T19:51:03.260Z,76.32
2019-03-03T19:53:34.374Z,76.32
2019-03-03T19:56:03.895Z,76.38
2019-03-03T19:58:33.406Z,76.38
2019-03-03T20:01:04.329Z,76.87
2019-03-03T20:03:33.915Z,76.20
2019-03-03T20:06:03.568Z,76.25
2019-03-03T20:08:33.093Z,76.05
2019-03-03T20:11:02.648Z,76.05
2019-03-03T20:13:32.311Z,75.54
2019-03-03T20:16:01.783Z,75.75
2019-03-03T20:18:31.364Z,75.59
2019-03-03T20:21:01.381Z,75.45
2019-03-03T20:23:30.899Z,75.45
2019-03-03T20:26:00.469Z,75.56
2019-03-03T20:28:31.733Z,75.37
2019-03-03T20:31:01.290Z,75.37
2019-03-03T20:33:33.580Z,75.14
2019-03-03T20:36:05.865Z,74.96
2019-03-03T20:38:35.454Z,74.70
2019-03-03T20:41:05.215Z,74.76
2019-03-03T20:43:34.773Z,74.57
2019-03-03T20:46:05.558Z,74.07
2019-03-03T20:48:44.045Z,74.07
2019-03-03T20:51:15.167Z,74.56
2019-03-03T20:53:44.919Z,74.05
2019-03-03T20:56:15.499Z,73.44
2019-03-03T20:58:44.988Z,73.30
2019-03-03T21:01:14.419Z,73.30
2019-03-03T21:03:43.832Z,73.29
2019-03-03T21:06:13.381Z,73.14
2019-03-03T21:08:42.764Z,73.14
2019-03-03T21:11:12.206Z,73.55
2019-03-03T21:13:41.654Z,73.40
2019-03-03T21:16:11.069Z,73.17
2019-03-03T21:18:40.530Z,73.17
2019-03-03T21:21:09.945Z,73.15
2019-03-03T21:23:40.925Z,73.66
2019-03-03T21:26:10.330Z,73.66
2019-03-03T21:28:39.839Z,73.50
2019-03-03T21:31:09.285Z,73.50
2019-03-03T21:33:39.168Z,73.55
2019-03-03T21:36:10.158Z,73.91
2019-03-03T21:38:39.568Z,73.48
2019-03-03T21:41:09.077Z,73.87
2019-03-03T21:43:38.504Z,73.87
2019-03-03T21:46:08.552Z,74.34
2019-03-03T21:48:38.331Z,74.34
2019-03-03T21:51:08.920Z,74.29
2019-03-03T21:53:38.365Z,74.29
2019-03-03T21:56:07.910Z,74.49
2019-03-03T21:58:37.418Z,74.46
2019-03-03T22:01:07.840Z,74.74
2019-03-03T22:03:37.528Z,74.74
2019-03-03T22:06:07.497Z,74.39
2019-03-03T22:08:36.930Z,74.19
2019-03-03T22:11:06.360Z,74.49
2019-03-03T22:13:35.799Z,74.51
2019-03-03T22:16:05.272Z,74.23
2019-03-03T22:18:34.722Z,74.72
2019-03-03T22:21:07.373Z,74.48
2019-03-03T22:23:36.790Z,74.25
2019-03-03T22:26:06.223Z,74.38
2019-03-03T22:28:36.458Z,74.60
2019-03-03T22:31:06.020Z,74.69
2019-03-03T22:33:38.574Z,75.28
2019-03-03T22:36:09.709Z,76.03
2019-03-03T22:38:39.151Z,76.85
2019-03-03T22:41:08.571Z,76.74
2019-03-03T22:43:38.003Z,76.69
2019-03-03T22:46:10.827Z,77.07
2019-03-03T22:48:40.546Z,77.25
2019-03-03T22:51:11.769Z,77.33
2019-03-03T22:53:42.719Z,77.18
2019-03-03T22:56:12.699Z,77.21
2019-03-03T22:58:44.838Z,76.60
2019-03-03T23:01:18.077Z,76.77
2019-03-03T23:04:08.739Z,77.01
2019-03-03T23:06:43.962Z,77.12
2019-03-03T23:09:19.229Z,77.10
2019-03-03T23:12:07.488Z,77.11
2019-03-03T23:15:06.422Z,77.61
2019-03-03T23:17:41.971Z,77.46
2019-03-03T23:20:23.811Z,77.18
2019-03-03T23:23:30.785Z,77.51
2019-03-03T23:26:00.271Z,77.60
2019-03-03T23:28:30.815Z,77.69
2019-03-03T23:31:00.265Z,77.94
2019-03-03T23:33:29.672Z,78.10
2019-03-03T23:36:05.817Z,78.29
2019-03-03T23:38:34.454Z,78.40
2019-03-03T23:41:04.035Z,78.32
2019-03-03T23:43:34.999Z,78.16
2019-03-03T23:46:04.402Z,78.23
2019-03-03T23:48:34.043Z,78.56
2019-03-03T23:51:03.523Z,78.80
2019-03-03T23:53:33.129Z,78.82
2019-03-03T23:56:02.604Z,78.81
2019-03-03T23:58:32.039Z,78.88
